East Pittsford, Vermont
Current Conditions -  °F | °C
As of 7:15 PM on Monday 24 Nov 2014 (Local Time) from K6B0 Reporting Station
Scattered Clouds Scattered Clouds  
Wind Chill: 65°   Ceiling: Unl
Heat Index: 65°   Visibility: 10mi
Dew Point: 54°   Wind: 17mph
Humidity: 66%   Direction: 180°S
Pressure: 29.44"   Gusts: 36mph
Location:  43.6369°N, 72.9375°W
Report Text: K6B0 250015Z AUTO 18015G31KT 10SM SCT065 19/12 A2944 RMK AO2 T01850121
Loading
Personal Weather Stations






























Interactive Weather Map New forecast layout! Learn more

10-Day Weather Forecast

Advertisements
Track Severe Weather on mobile